createdAt,value
2023-11-02T00:02:25.901Z,53.0
2023-11-02T00:05:26.294Z,58.0
2023-11-02T00:08:26.001Z,37.0
2023-11-02T00:11:25.901Z,41.0
2023-11-02T00:14:25.909Z,37.0
2023-11-02T00:17:25.769Z,41.0
2023-11-02T00:20:26.016Z,30.0
2023-11-02T00:23:25.616Z,24.0
2023-11-02T00:26:26.739Z,20.0
2023-11-02T00:29:25.820Z,16.0
2023-11-02T00:32:25.953Z,20.0
2023-11-02T00:35:26.231Z,28.0
2023-11-02T00:38:25.934Z,32.0
2023-11-02T00:41:25.980Z,28.0
2023-11-02T00:44:25.833Z,26.0
2023-11-02T00:47:25.626Z,21.0
2023-11-02T00:50:26.184Z,10.0
2023-11-02T00:53:25.690Z,13.0
2023-11-02T00:56:25.830Z,13.0
2023-11-02T00:59:25.844Z,11.0
2023-11-02T01:02:25.871Z,1.0
2023-11-02T01:05:26.198Z,19.0
2023-11-02T01:08:26.066Z,20.0
2023-11-02T01:11:26.031Z,32.0
2023-11-02T01:14:25.655Z,29.0
2023-11-02T01:17:25.851Z,17.0
2023-11-02T01:20:26.456Z,17.0
2023-11-02T01:23:26.574Z,20.0
2023-11-02T01:26:25.700Z,18.0
2023-11-02T01:29:29.782Z,16.0
2023-11-02T01:32:25.885Z,17.0
2023-11-02T01:35:26.295Z,8.0
2023-11-02T01:38:25.971Z,15.0
2023-11-02T01:41:25.910Z,16.0
2023-11-02T01:44:25.767Z,14.0
2023-11-02T01:47:25.804Z,18.0
2023-11-02T01:50:26.401Z,9.0
2023-11-02T01:53:25.613Z,5.0
2023-11-02T01:56:25.670Z,5.0
2023-11-02T01:59:25.680Z,10.0
2023-11-02T02:05:26.157Z,14.0
2023-11-02T02:08:25.750Z,10.0
2023-11-02T02:11:25.600Z,10.0
2023-11-02T02:14:25.667Z,1.0
2023-11-02T02:17:25.767Z,0.0
2023-11-02T02:20:26.069Z,13.0
2023-11-02T02:23:25.694Z,11.0
2023-11-02T02:26:26.852Z,14.0
2023-11-02T02:29:28.607Z,16.0
2023-11-02T02:32:25.823Z,6.0
2023-11-02T02:35:26.155Z,9.0
2023-11-02T02:38:25.643Z,14.0
2023-11-02T02:41:25.651Z,17.0
2023-11-02T02:44:25.842Z,15.0
2023-11-02T02:47:25.604Z,25.0
2023-11-02T02:50:26.117Z,27.0
2023-11-02T02:53:25.680Z,23.0
2023-11-02T02:56:25.703Z,31.0
2023-11-02T02:59:25.922Z,44.0
2023-11-02T03:02:25.872Z,43.0
2023-11-02T03:05:26.382Z,33.0
2023-11-02T03:08:25.684Z,43.0
2023-11-02T03:11:35.545Z,31.0
2023-11-02T03:14:25.720Z,31.0
2023-11-02T03:17:34.456Z,35.0
2023-11-02T03:20:26.258Z,53.0
2023-11-02T03:23:26.111Z,43.0
2023-11-02T03:35:26.087Z,28.0
2023-11-02T03:41:25.515Z,21.0
2023-11-02T03:44:25.691Z,30.0
2023-11-02T03:47:25.788Z,35.0
2023-11-02T03:50:26.826Z,44.0
2023-11-02T03:53:26.155Z,48.0
2023-11-02T03:56:25.954Z,45.0
2023-11-02T03:59:27.367Z,46.0
2023-11-02T04:02:26.415Z,42.0
2023-11-02T04:05:26.818Z,34.0
2023-11-02T04:08:25.984Z,34.0
2023-11-02T04:11:26.072Z,35.0
2023-11-02T04:14:25.857Z,35.0
2023-11-02T04:17:25.825Z,27.0
2023-11-02T04:23:25.761Z,20.0
2023-11-02T04:26:25.668Z,13.0
2023-11-02T04:29:28.270Z,16.0
2023-11-02T04:32:26.133Z,7.0
2023-11-02T04:35:26.243Z,17.0
2023-11-02T04:38:25.914Z,20.0
2023-11-02T04:41:25.825Z,37.0
2023-11-02T04:44:25.879Z,30.0
2023-11-02T04:47:25.901Z,26.0
2023-11-02T04:50:26.045Z,24.0
2023-11-02T04:53:29.329Z,18.0
2023-11-02T04:56:25.956Z,18.0
2023-11-02T04:59:25.755Z,20.0
2023-11-02T05:02:25.802Z,13.0
2023-11-02T05:05:30.402Z,16.0
2023-11-02T05:08:25.935Z,18.0
2023-11-02T05:11:26.016Z,19.0
2023-11-02T05:14:25.679Z,20.0
2023-11-02T05:17:33.594Z,24.0
2023-11-02T05:20:25.921Z,66.0
2023-11-02T05:23:25.956Z,23.0
2023-11-02T05:26:25.917Z,17.0
2023-11-02T05:29:26.280Z,13.0
2023-11-02T05:32:26.234Z,32.0
2023-11-02T05:35:26.532Z,54.0
2023-11-02T05:38:25.789Z,34.0
2023-11-02T05:41:26.026Z,42.0
2023-11-02T05:44:25.785Z,40.0
2023-11-02T05:47:25.920Z,212.0
2023-11-02T05:50:26.521Z,81.0
2023-11-02T05:53:25.986Z,51.0
2023-11-02T05:56:25.832Z,45.0
2023-11-02T05:59:25.675Z,40.0
2023-11-02T06:02:26.056Z,45.0
2023-11-02T06:05:25.861Z,51.0
2023-11-02T06:08:26.080Z,55.0
2023-11-02T06:11:26.490Z,88.0
2023-11-02T06:14:25.745Z,189.0
2023-11-02T06:17:26.034Z,83.0
2023-11-02T06:20:26.056Z,66.0
2023-11-02T06:23:25.825Z,71.0
2023-11-02T06:26:25.774Z,70.0
2023-11-02T06:29:25.757Z,66.0
2023-11-02T06:32:29.130Z,82.0
2023-11-02T06:35:26.461Z,77.0
2023-11-02T06:38:25.763Z,117.0
2023-11-02T06:41:25.761Z,104.0
2023-11-02T06:44:26.300Z,83.0
2023-11-02T06:47:25.842Z,75.0
2023-11-02T06:50:27.017Z,95.0
2023-11-02T06:53:25.789Z,119.0
2023-11-02T06:56:25.721Z,92.0
2023-11-02T06:59:25.684Z,146.0
2023-11-02T07:02:26.059Z,98.0
2023-11-02T07:05:26.327Z,90.0
2023-11-02T07:08:28.923Z,89.0
2023-11-02T07:11:26.608Z,85.0
2023-11-02T07:14:25.911Z,88.0
2023-11-02T07:17:25.829Z,80.0
2023-11-02T07:20:26.185Z,73.0
2023-11-02T07:23:29.104Z,77.0
2023-11-02T07:26:25.678Z,73.0
2023-11-02T07:29:25.639Z,89.0
2023-11-02T07:32:26.506Z,82.0
2023-11-02T07:35:26.672Z,95.0
2023-11-02T07:38:34.904Z,104.0
2023-11-02T07:41:25.791Z,81.0
2023-11-02T07:44:25.783Z,70.0
2023-11-02T07:47:25.724Z,69.0
2023-11-02T07:50:26.276Z,60.0
2023-11-02T07:53:25.697Z,61.0
2023-11-02T07:56:25.734Z,61.0
2023-11-02T07:59:25.690Z,67.0
2023-11-02T08:02:25.779Z,68.0
2023-11-02T08:05:28.950Z,76.0
2023-11-02T08:08:26.422Z,87.0
2023-11-02T08:11:25.922Z,76.0
2023-11-02T08:14:27.639Z,69.0
2023-11-02T08:17:25.760Z,74.0
2023-11-02T08:20:26.373Z,82.0
2023-11-02T08:23:25.929Z,85.0
2023-11-02T08:26:25.789Z,86.0
2023-11-02T08:29:25.817Z,80.0
2023-11-02T08:32:25.685Z,101.0
2023-11-02T08:35:26.607Z,247.0
2023-11-02T08:38:26.478Z,116.0
2023-11-02T08:41:27.712Z,86.0
2023-11-02T08:44:26.188Z,77.0
2023-11-02T08:50:26.498Z,79.0
2023-11-02T08:53:26.068Z,74.0
2023-11-02T08:56:26.010Z,84.0
2023-11-02T08:59:25.959Z,80.0
2023-11-02T09:02:28.335Z,77.0
2023-11-02T09:05:27.723Z,77.0
2023-11-02T09:08:26.739Z,72.0
2023-11-02T09:11:28.161Z,78.0
2023-11-02T09:14:25.954Z,83.0
2023-11-02T09:17:25.942Z,76.0
2023-11-02T09:20:26.769Z,76.0
2023-11-02T09:23:27.628Z,72.0
2023-11-02T09:26:25.945Z,160.0
2023-11-02T09:29:26.290Z,94.0
2023-11-02T09:32:36.401Z,64.0
2023-11-02T09:35:26.498Z,65.0
2023-11-02T09:38:25.985Z,71.0
2023-11-02T09:41:25.943Z,67.0
2023-11-02T09:44:27.576Z,67.0
2023-11-02T09:47:26.005Z,71.0
2023-11-02T09:50:26.808Z,61.0
2023-11-02T09:53:25.983Z,58.0
2023-11-02T09:56:35.576Z,63.0
2023-11-02T09:59:26.038Z,84.0
2023-11-02T10:02:26.472Z,205.0
2023-11-02T10:05:26.121Z,98.0
2023-11-02T10:08:26.166Z,67.0
2023-11-02T10:11:26.225Z,55.0
2023-11-02T10:14:25.982Z,40.0
2023-11-02T10:17:27.293Z,31.0
2023-11-02T10:20:27.229Z,41.0
2023-11-02T10:23:27.670Z,38.0
2023-11-02T10:26:26.056Z,74.0
2023-11-02T10:29:26.157Z,59.0
2023-11-02T10:32:26.467Z,68.0
2023-11-02T10:35:27.387Z,52.0
2023-11-02T10:38:26.106Z,57.0
2023-11-02T10:41:25.979Z,63.0
2023-11-02T10:44:26.196Z,72.0
2023-11-02T10:47:28.558Z,59.0
2023-11-02T10:50:26.446Z,60.0
2023-11-02T10:53:29.267Z,42.0
2023-11-02T10:56:25.976Z,40.0
2023-11-02T10:59:26.916Z,52.0
2023-11-02T11:02:26.180Z,53.0
2023-11-02T11:05:28.406Z,43.0
2023-11-02T11:08:26.157Z,63.0
2023-11-02T11:11:26.099Z,49.0
2023-11-02T11:14:26.040Z,42.0
2023-11-02T11:17:25.992Z,64.0
2023-11-02T11:20:26.213Z,67.0
2023-11-02T11:23:26.486Z,57.0
2023-11-02T11:26:25.954Z,83.0
2023-11-02T11:29:26.060Z,74.0
2023-11-02T11:32:26.414Z,65.0
2023-11-02T11:35:26.462Z,59.0
2023-11-02T11:38:25.943Z,60.0
2023-11-02T11:41:26.368Z,49.0
2023-11-02T11:44:25.779Z,49.0
2023-11-02T11:47:26.923Z,151.0
2023-11-02T11:50:27.586Z,75.0
2023-11-02T11:53:26.051Z,73.0
2023-11-02T11:56:26.481Z,73.0
2023-11-02T11:59:25.853Z,48.0
2023-11-02T12:02:26.232Z,50.0
2023-11-02T12:05:30.734Z,55.0
2023-11-02T12:08:27.119Z,62.0
2023-11-02T12:11:28.384Z,50.0
2023-11-02T12:14:26.417Z,71.0
2023-11-02T12:17:26.126Z,63.0
2023-11-02T12:20:26.732Z,110.0
2023-11-02T12:23:27.096Z,75.0
2023-11-02T12:26:26.068Z,74.0
2023-11-02T12:29:26.391Z,61.0
2023-11-02T12:32:26.117Z,49.0
2023-11-02T12:35:27.090Z,39.0
2023-11-02T12:38:26.768Z,42.0
2023-11-02T12:41:26.206Z,39.0
2023-11-02T12:44:26.156Z,62.0
2023-11-02T12:47:27.170Z,52.0
2023-11-02T12:50:30.303Z,53.0
2023-11-02T12:53:27.321Z,56.0
2023-11-02T12:56:26.429Z,39.0
2023-11-02T12:59:26.300Z,34.0
2023-11-02T13:02:27.692Z,43.0
2023-11-02T13:05:27.472Z,32.0
2023-11-02T13:08:27.479Z,28.0
2023-11-02T13:11:27.155Z,32.0
2023-11-02T13:14:26.672Z,34.0
2023-11-02T13:17:26.086Z,31.0
2023-11-02T13:20:27.112Z,42.0
2023-11-02T13:23:26.546Z,39.0
2023-11-02T13:26:28.722Z,77.0
2023-11-02T13:29:26.198Z,62.0
2023-11-02T13:32:26.259Z,55.0
2023-11-02T13:35:27.799Z,47.0
2023-11-02T13:38:25.898Z,44.0
2023-11-02T13:41:26.348Z,49.0
2023-11-02T13:44:25.966Z,30.0
2023-11-02T13:47:28.260Z,25.0
2023-11-02T13:50:28.893Z,48.0
2023-11-02T13:53:26.054Z,47.0
2023-11-02T13:56:28.651Z,53.0
2023-11-02T13:59:26.162Z,69.0
2023-11-02T14:02:27.113Z,80.0
2023-11-02T14:05:28.189Z,67.0
2023-11-02T14:08:27.022Z,59.0
2023-11-02T14:11:26.535Z,68.0
2023-11-02T14:14:26.462Z,46.0
2023-11-02T14:17:25.999Z,41.0
2023-11-02T14:20:26.626Z,47.0
2023-11-02T14:23:25.932Z,48.0
2023-11-02T14:26:26.062Z,81.0
2023-11-02T14:29:25.935Z,70.0
2023-11-02T14:32:26.192Z,64.0
2023-11-02T14:35:26.425Z,85.0
2023-11-02T14:38:28.345Z,71.0
2023-11-02T14:41:26.208Z,71.0
2023-11-02T14:44:26.069Z,72.0
2023-11-02T14:47:26.065Z,75.0
2023-11-02T14:50:26.530Z,62.0
2023-11-02T14:53:26.266Z,44.0
2023-11-02T14:56:35.497Z,44.0
2023-11-02T14:59:26.125Z,56.0
2023-11-02T15:02:26.206Z,67.0
2023-11-02T15:05:27.595Z,72.0
2023-11-02T15:08:26.643Z,92.0
2023-11-02T15:11:35.557Z,95.0
2023-11-02T15:14:26.493Z,73.0
2023-11-02T15:17:25.989Z,66.0
2023-11-02T15:20:26.269Z,75.0
2023-11-02T15:23:26.024Z,71.0
2023-11-02T15:26:26.346Z,69.0
2023-11-02T15:29:26.048Z,59.0
2023-11-02T15:32:25.941Z,63.0
2023-11-02T15:35:26.378Z,61.0
2023-11-02T15:38:25.952Z,71.0
2023-11-02T15:41:26.442Z,76.0
2023-11-02T15:44:26.158Z,123.0
2023-11-02T15:47:26.110Z,108.0
2023-11-02T15:50:26.788Z,126.0
2023-11-02T15:53:26.160Z,92.0
2023-11-02T15:56:26.263Z,82.0
2023-11-02T15:59:26.132Z,77.0
2023-11-02T16:02:36.683Z,65.0
2023-11-02T16:05:26.419Z,77.0
2023-11-02T16:08:25.935Z,75.0
2023-11-02T16:11:29.606Z,93.0
2023-11-02T16:14:26.095Z,84.0
2023-11-02T16:17:27.499Z,75.0
2023-11-02T16:20:26.611Z,58.0
2023-11-02T16:23:27.519Z,87.0
2023-11-02T16:26:28.332Z,85.0
2023-11-02T16:29:25.995Z,98.0
2023-11-02T16:32:29.268Z,84.0
2023-11-02T16:35:57.543Z,77.0
2023-11-02T16:38:26.011Z,121.0
2023-11-02T16:41:26.338Z,118.0
2023-11-02T16:44:25.979Z,102.0
2023-11-02T16:47:25.831Z,96.0
2023-11-02T16:50:26.620Z,86.0
2023-11-02T16:53:26.510Z,85.0
2023-11-02T16:56:26.045Z,78.0
2023-11-02T16:59:26.084Z,78.0
2023-11-02T17:02:26.116Z,68.0
2023-11-02T17:05:26.195Z,114.0
2023-11-02T17:08:28.578Z,68.0
2023-11-02T17:11:26.431Z,50.0
2023-11-02T17:14:26.111Z,46.0
2023-11-02T17:17:26.080Z,57.0
2023-11-02T17:20:27.111Z,47.0
2023-11-02T17:23:26.034Z,51.0
2023-11-02T17:26:25.918Z,66.0
2023-11-02T17:29:26.384Z,60.0
2023-11-02T17:32:26.099Z,70.0
2023-11-02T17:35:26.354Z,51.0
2023-11-02T17:38:26.191Z,38.0
2023-11-02T17:41:28.612Z,19.0
2023-11-02T17:44:25.910Z,24.0
2023-11-02T17:47:26.077Z,16.0
2023-11-02T17:50:26.729Z,20.0
2023-11-02T17:53:25.951Z,21.0
2023-11-02T17:56:26.033Z,33.0
2023-11-02T17:59:26.024Z,32.0
2023-11-02T18:02:26.233Z,32.0
2023-11-02T18:05:26.234Z,38.0
2023-11-02T18:08:26.342Z,40.0
2023-11-02T18:11:29.933Z,51.0
2023-11-02T18:14:26.023Z,60.0
2023-11-02T18:17:27.409Z,62.0
2023-11-02T18:20:26.589Z,74.0
2023-11-02T18:23:26.216Z,84.0
2023-11-02T18:26:27.335Z,87.0
2023-11-02T18:29:26.253Z,80.0
2023-11-02T18:32:26.464Z,77.0
2023-11-02T18:35:26.493Z,76.0
2023-11-02T18:38:35.938Z,61.0
2023-11-02T18:41:26.331Z,57.0
2023-11-02T18:44:25.901Z,57.0
2023-11-02T18:47:26.012Z,68.0
2023-11-02T18:50:26.653Z,60.0
2023-11-02T18:53:26.493Z,65.0
2023-11-02T18:56:26.047Z,47.0
2023-11-02T18:59:26.117Z,50.0
2023-11-02T19:02:26.329Z,54.0
2023-11-02T19:05:26.562Z,46.0
2023-11-02T19:08:26.197Z,45.0
2023-11-02T19:11:26.094Z,44.0
2023-11-02T19:14:26.077Z,50.0
2023-11-02T19:17:26.038Z,62.0
2023-11-02T19:20:26.436Z,62.0
2023-11-02T19:23:27.884Z,67.0
2023-11-02T19:26:26.079Z,74.0
2023-11-02T19:29:26.287Z,59.0
2023-11-02T19:32:26.219Z,88.0
2023-11-02T19:35:26.591Z,85.0
2023-11-02T19:38:28.062Z,62.0
2023-11-02T19:41:26.111Z,76.0
2023-11-02T19:44:29.080Z,73.0
2023-11-02T19:47:25.914Z,68.0
2023-11-02T19:50:26.904Z,55.0
2023-11-02T19:53:28.400Z,61.0
2023-11-02T19:56:26.000Z,58.0
2023-11-02T19:59:27.968Z,49.0
2023-11-02T20:02:26.045Z,37.0
2023-11-02T20:05:27.382Z,41.0
2023-11-02T20:08:27.906Z,40.0
2023-11-02T20:11:26.020Z,38.0
2023-11-02T20:14:25.806Z,41.0
2023-11-02T20:17:25.689Z,45.0
2023-11-02T20:20:27.807Z,27.0
2023-11-02T20:23:25.735Z,32.0
2023-11-02T20:26:25.914Z,31.0
2023-11-02T20:29:25.672Z,24.0
2023-11-02T20:32:25.685Z,23.0
2023-11-02T20:35:26.539Z,43.0
2023-11-02T20:38:25.787Z,49.0
2023-11-02T20:41:25.679Z,30.0
2023-11-02T20:44:25.770Z,27.0
2023-11-02T20:47:26.517Z,21.0
2023-11-02T20:50:26.181Z,20.0
2023-11-02T20:53:25.693Z,17.0
2023-11-02T20:56:25.699Z,36.0
2023-11-02T20:59:25.800Z,37.0
2023-11-02T21:02:39.072Z,42.0
2023-11-02T21:05:25.941Z,38.0
2023-11-02T21:08:35.562Z,9.0
2023-11-02T21:11:25.880Z,35.0
2023-11-02T21:14:25.652Z,43.0
2023-11-02T21:17:25.808Z,43.0
2023-11-02T21:20:26.220Z,35.0
2023-11-02T21:23:25.664Z,40.0
2023-11-02T21:26:25.791Z,42.0
2023-11-02T21:29:25.851Z,31.0
2023-11-02T21:32:25.718Z,40.0
2023-11-02T21:35:26.050Z,45.0
2023-11-02T21:38:25.668Z,41.0
2023-11-02T21:41:26.613Z,43.0
2023-11-02T21:44:25.910Z,40.0
2023-11-02T21:47:26.039Z,46.0
2023-11-02T21:50:28.317Z,50.0
2023-11-02T21:53:25.910Z,53.0
2023-11-02T21:56:25.823Z,47.0
2023-11-02T21:59:25.937Z,43.0
2023-11-02T22:02:25.789Z,47.0
2023-11-02T22:05:28.818Z,55.0
2023-11-02T22:08:25.845Z,58.0
2023-11-02T22:11:28.732Z,57.0
2023-11-02T22:14:25.723Z,45.0
2023-11-02T22:17:25.846Z,58.0
2023-11-02T22:20:26.391Z,61.0
2023-11-02T22:23:25.786Z,56.0
2023-11-02T22:26:25.774Z,53.0
2023-11-02T22:29:25.707Z,57.0
2023-11-02T22:32:26.412Z,52.0
2023-11-02T22:35:26.376Z,54.0
2023-11-02T22:38:25.772Z,62.0
2023-11-02T22:41:25.828Z,44.0
2023-11-02T22:44:25.719Z,53.0
2023-11-02T22:47:25.726Z,58.0
2023-11-02T22:50:26.248Z,59.0
2023-11-02T22:53:25.999Z,50.0
2023-11-02T22:56:25.782Z,55.0
2023-11-02T22:59:25.732Z,54.0
2023-11-02T23:02:26.393Z,45.0
2023-11-02T23:05:27.772Z,52.0
2023-11-02T23:08:26.093Z,42.0
2023-11-02T23:11:25.929Z,47.0
2023-11-02T23:14:25.894Z,43.0
2023-11-02T23:17:26.005Z,43.0
2023-11-02T23:20:26.508Z,35.0
2023-11-02T23:23:25.814Z,36.0
2023-11-02T23:26:25.894Z,40.0
2023-11-02T23:29:36.468Z,53.0
2023-11-02T23:32:26.234Z,52.0
2023-11-02T23:35:26.507Z,44.0
2023-11-02T23:38:26.021Z,44.0
2023-11-02T23:41:26.023Z,45.0
2023-11-02T23:44:25.935Z,50.0
2023-11-02T23:47:26.083Z,44.0
2023-11-02T23:50:26.776Z,43.0
2023-11-02T23:53:26.005Z,33.0
2023-11-02T23:56:25.980Z,48.0
2023-11-02T23:59:26.069Z,37.0
